Flight Track Log - Related Links

Times and Time Zones

All times are in EDT time to prevent confusion due to time zone crossing. See the KAP927 flight status page for this flight to view local times or setup timezone preferences in your user account.

Time Position Orientation Groundspeed Altitude Reporting Facility
EDT Latitude Longitude Course Direction KTS MPH feet Rate Location/Type
Fri 08:29:06 AM 42.7431 -73.7406 96° East 121 139 1,400  Level Boston Center
Fri 08:30:06 AM 42.7394 -73.6925 96° East 129 148 2,000 595 Climbing Boston Center
Fri 08:31:07 AM 42.7297 -73.6414 105° East 136 157 2,600 645 Climbing Boston Center
Fri 08:32:07 AM 42.7239 -73.5847 98° East 140 161 3,300 645 Climbing Boston Center
Fri 08:33:08 AM 42.7161 -73.5336 102° East 140 161 3,900 541 Climbing Boston Center
Fri 08:34:09 AM 42.7083 -73.4800 101° East 141 162 4,400 545 Climbing Boston Center
Fri 08:35:09 AM 42.7003 -73.4289 102° East 146 168 5,000 545 Climbing Boston Center
Fri 08:36:10 AM 42.6947 -73.3694 97° East 152 175 5,500 452 Climbing Boston Center
Fri 08:36:42 AM 42.6886 -73.3411 106° East 153 176 5,700 448 Climbing Boston Center
Fri 08:37:17 AM 42.6828 -73.3014 101° East 161 185 6,000 472 Climbing Boston Center
Fri 08:38:11 AM 42.6767 -73.2506 99° East 166 191 6,400 424 Climbing Boston Center
Fri 08:38:42 AM 42.6750 -73.2222 95° East 169 194 6,600 396 Climbing Boston Center
Fri 08:39:42 AM 42.6650 -73.1517 101° East 176 203 7,000 400 Climbing Boston Center
Fri 08:40:42 AM 42.6569 -73.0922 100° East 176 203 7,400 250 Climbing Boston Center
Fri 08:41:42 AM 42.6469 -73.0186 100° East 176 203 7,500 50 Climbing Boston Center
Fri 08:42:42 AM 42.6389 -72.9481 99° East 191 220 7,500  Level Boston Center
Fri 08:43:42 AM 42.6308 -72.8747 98° East 196 226 7,500  Level Boston Center
Fri 08:44:42 AM 42.6208 -72.8097 102° East 191 220 7,500  Level Boston Center
Fri 08:45:42 AM 42.6125 -72.7447 100° East 179 206 7,500  Level Boston Center
Fri 08:46:42 AM 42.6022 -72.6769 102° East 170 196 7,500  Level Boston Center
Fri 08:47:42 AM 42.5961 -72.6178 98° East 170 196 7,500  Level Boston Center
Fri 08:48:42 AM 42.5858 -72.5500 102° East 175 201 7,500 50 Level Boston Center
Fri 08:49:42 AM 42.5756 -72.4881 103° East 175 201 7,600 50 Climbing Boston Center
Fri 08:50:42 AM 42.5692 -72.4261 98° East 175 201 7,600  Level Boston Center
Fri 08:51:42 AM 42.5567 -72.3583 104° East 175 201 7,600 -50 Level Boston Center
Fri 08:52:42 AM 42.5483 -72.2908 99° East 175 201 7,500 -50 Descending Boston Center
Fri 08:53:42 AM 42.5397 -72.2258 100° East 168 193 7,500 50 Level Boston Center
Fri 08:54:42 AM 42.5314 -72.1667 101° East 168 193 7,600  Climbing Boston Center
Fri 08:55:42 AM 42.5208 -72.0964 101° East 173 199 7,500  Descending Boston Center
Fri 08:56:42 AM 42.5122 -72.0344 101° East 178 205 7,600  Climbing Boston Center
Fri 08:57:42 AM 42.5014 -71.9614 101° East 178 205 7,500 -150 Descending Boston Center
Fri 08:58:42 AM 42.4928 -71.8994 101° East 183 211 7,300 -300 Descending Boston Center
Fri 08:59:42 AM 42.4822 -71.8236 101° East 183 211 6,900 -350 Descending Boston Center
Fri 09:00:42 AM 42.4733 -71.7589 101° East 183 211 6,600 -400 Descending Boston Center
Fri 09:01:42 AM 42.4750 -71.6800 88° East 183 211 6,100 -450 Descending Boston Center
Fri 09:02:42 AM 42.4808 -71.6153 83° East 188 216 5,700 -300 Descending Boston Center
Fri 09:03:42 AM 42.4864 -71.5392 84° East 194 223 5,500 -92 Descending Boston Center
Fri 09:04:53 AM 42.5000 -71.4500 78° East 177 204 5,500  Level KA90
Fri 09:05:59 AM 42.5000 -71.3833 90° East 177 204 5,500  Level KA90
Fri 09:06:59 AM 42.5167 -71.3167 71° East 176 203 5,500 -350 Level KA90
Fri 09:07:59 AM 42.5167 -71.2500 90° East 198 228 4,800 -650 Descending KA90
Fri 09:08:59 AM 42.5167 -71.1667 90° East 201 231 4,200 -550 Descending KA90
Fri 09:09:48 AM 42.5167 -71.1167 90° East 200 230 3,800 -545 Descending KA90
Fri 09:11:00 AM 42.5167 -71.0167 90° East 193 222 3,100 -687 Descending KA90
Fri 09:11:59 AM 42.4833 -70.9833 144° Southeast 186 214 2,300 -743 Descending KA90
Fri 09:12:53 AM 42.4333 -70.9833 180° South 184 212 1,700 -800 Descending KA90
Fri 09:13:59 AM 42.4000 -71.0000 200° South 118 136 700 -909 Descending KA90
Fri 09:15:00 AM 42.3630 -71.0064 270° West  Level Estimated
Fri 09:22:00 AM 42.3630 -71.0064 270° West  Level Estimated
Fri 09:23:00 AM 42.3630 -71.0064 270° West  Level Estimated

Login

Don't have an account? Register now (free) for customized features, flight alerts, and more!